createdAt,value
2019-02-12T00:00:48.410Z,81.81
2019-02-12T00:01:48.371Z,80.88
2019-02-12T00:02:48.354Z,80.98
2019-02-12T00:03:48.348Z,81.81
2019-02-12T00:04:48.342Z,81.40
2019-02-12T00:05:48.367Z,82.03
2019-02-12T00:06:48.316Z,81.92
2019-02-12T00:07:48.299Z,81.92
2019-02-12T00:08:48.292Z,81.71
2019-02-12T00:09:48.284Z,83.37
2019-02-12T00:10:48.276Z,83.37
2019-02-12T00:11:48.285Z,82.34
2019-02-12T00:12:48.261Z,82.23
2019-02-12T00:13:48.241Z,83.80
2019-02-12T00:14:48.234Z,83.69
2019-02-12T00:15:48.223Z,83.48
2019-02-12T00:16:48.240Z,83.42
2019-02-12T00:17:48.198Z,84.14
2019-02-12T00:18:48.186Z,84.63
2019-02-12T00:19:48.182Z,84.04
2019-02-12T00:20:48.162Z,85.19
2019-02-12T00:21:48.190Z,84.66
2019-02-12T00:22:48.143Z,84.77
2019-02-12T00:23:48.144Z,85.50
2019-02-12T00:24:48.123Z,85.29
2019-02-12T00:25:48.115Z,85.67
2019-02-12T00:26:48.122Z,85.71
2019-02-12T00:27:48.104Z,85.60
2019-02-12T00:28:48.093Z,85.39
2019-02-12T00:29:48.074Z,84.77
2019-02-12T00:30:48.061Z,86.33
2019-02-12T00:31:48.071Z,86.19
2019-02-12T00:32:48.046Z,86.29
2019-02-12T00:33:48.032Z,86.29
2019-02-12T00:34:48.117Z,86.71
2019-02-12T00:35:48.005Z,87.06
2019-02-12T00:36:48.027Z,86.85
2019-02-12T00:37:47.979Z,86.71
2019-02-12T00:38:47.972Z,86.96
2019-02-12T00:39:47.965Z,87.37
2019-02-12T00:40:47.972Z,86.75
2019-02-12T00:41:47.969Z,87.06
2019-02-12T00:42:47.933Z,87.16
2019-02-12T00:43:47.925Z,87.27
2019-02-12T00:44:47.911Z,87.89
2019-02-12T00:45:47.894Z,88.66
2019-02-12T00:46:47.919Z,88.20
2019-02-12T00:47:47.873Z,88.04
2019-02-12T00:48:47.868Z,88.42
2019-02-12T00:49:47.857Z,88.20
2019-02-12T00:50:47.858Z,88.87
2019-02-12T00:51:47.869Z,89.98
2019-02-12T00:52:47.840Z,89.87
2019-02-12T00:53:47.814Z,89.35
2019-02-12T00:54:47.799Z,89.60
2019-02-12T00:55:47.801Z,89.66
2019-02-12T00:56:47.820Z,89.45
2019-02-12T00:57:47.784Z,89.60
2019-02-12T00:58:47.761Z,89.91
2019-02-12T00:59:47.745Z,89.39
2019-02-12T01:00:47.747Z,89.50
2019-02-12T01:01:47.767Z,90.01
2019-02-12T01:02:47.721Z,89.91
2019-02-12T01:03:47.711Z,90.16
2019-02-12T01:04:47.694Z,90.37
2019-02-12T01:05:47.684Z,90.47
2019-02-12T01:06:47.697Z,91.10
2019-02-12T01:07:47.670Z,91.31
2019-02-12T01:08:47.655Z,91.10
2019-02-12T01:09:47.647Z,91.52
2019-02-12T01:10:47.635Z,91.56
2019-02-12T01:11:47.643Z,91.66
2019-02-12T01:12:47.614Z,92.03
2019-02-12T01:13:47.592Z,91.87
2019-02-12T01:14:47.591Z,91.81
2019-02-12T01:15:47.593Z,92.33
2019-02-12T01:16:47.595Z,92.65
2019-02-12T01:17:47.554Z,93.48
2019-02-12T01:18:47.549Z,92.96
2019-02-12T01:19:47.528Z,93.16
2019-02-12T01:20:47.520Z,93.37
2019-02-12T01:21:47.543Z,93.16
2019-02-12T01:22:47.502Z,93.21
2019-02-12T01:23:47.497Z,93.90
2019-02-12T01:24:47.488Z,94.04
2019-02-12T01:25:47.473Z,93.63
2019-02-12T01:26:47.496Z,94.00
2019-02-12T01:27:47.455Z,93.94
2019-02-12T01:28:47.441Z,94.00
2019-02-12T01:29:47.434Z,94.10
2019-02-12T01:30:47.414Z,94.52
2019-02-12T01:31:47.434Z,94.52
2019-02-12T01:32:47.397Z,94.67
2019-02-12T01:33:47.382Z,94.73
2019-02-12T01:34:47.378Z,94.42
2019-02-12T01:35:47.368Z,94.94
2019-02-12T01:36:47.374Z,94.31
2019-02-12T01:37:47.344Z,94.42
2019-02-12T01:38:47.334Z,94.48
2019-02-12T01:39:47.326Z,94.17
2019-02-12T01:40:47.315Z,94.84
2019-02-12T01:41:47.348Z,94.58
2019-02-12T01:42:47.310Z,94.17
2019-02-12T01:43:47.275Z,94.06
2019-02-12T01:44:47.269Z,93.85
2019-02-12T01:45:47.264Z,93.96
2019-02-12T01:46:47.245Z,94.06
2019-02-12T01:47:47.272Z,94.02
2019-02-12T01:48:47.229Z,93.85
2019-02-12T01:49:47.207Z,93.85
2019-02-12T01:50:47.204Z,93.85
2019-02-12T01:51:47.197Z,94.17
2019-02-12T01:52:47.235Z,94.23
2019-02-12T01:53:47.178Z,94.06
2019-02-12T01:54:47.156Z,94.43
2019-02-12T01:55:47.154Z,94.58
2019-02-12T01:56:47.144Z,94.69
2019-02-12T01:57:47.163Z,94.37
2019-02-12T01:58:47.132Z,93.96
2019-02-12T01:59:47.110Z,93.85
2019-02-12T02:00:47.105Z,94.33
2019-02-12T02:01:47.099Z,93.60
2019-02-12T02:02:47.107Z,93.60
2019-02-12T02:03:47.074Z,93.60
2019-02-12T02:04:47.057Z,93.50
2019-02-12T02:05:47.046Z,94.12
2019-02-12T02:06:47.035Z,94.02
2019-02-12T02:07:47.052Z,93.29
2019-02-12T02:08:47.029Z,93.29
2019-02-12T02:09:47.002Z,93.75
2019-02-12T02:10:46.990Z,93.71
2019-02-12T02:11:46.982Z,93.50
2019-02-12T02:12:47.011Z,93.60
2019-02-12T02:13:46.971Z,93.29
2019-02-12T02:14:46.957Z,93.71
2019-02-12T02:15:46.944Z,93.08
2019-02-12T02:16:46.925Z,93.08
2019-02-12T02:17:46.945Z,92.97
2019-02-12T02:18:46.911Z,92.56
2019-02-12T02:19:46.927Z,92.66
2019-02-12T02:20:46.892Z,92.77
2019-02-12T02:21:46.947Z,92.66
2019-02-12T02:22:46.900Z,92.66
2019-02-12T02:23:46.855Z,92.35
2019-02-12T02:24:46.850Z,92.46
2019-02-12T02:25:46.846Z,92.35
2019-02-12T02:26:46.829Z,92.56
2019-02-12T02:27:46.841Z,92.46
2019-02-12T02:28:46.799Z,92.66
2019-02-12T02:29:46.793Z,92.35
2019-02-12T02:30:46.786Z,92.25
2019-02-12T02:31:46.767Z,92.25
2019-02-12T02:32:46.800Z,92.25
2019-02-12T02:33:46.750Z,92.77
2019-02-12T02:34:46.732Z,92.77
2019-02-12T02:35:46.733Z,92.46
2019-02-12T02:36:46.724Z,92.46
2019-02-12T02:37:46.734Z,91.78
2019-02-12T02:38:46.695Z,91.83
2019-02-12T02:39:46.688Z,91.89
2019-02-12T02:40:46.682Z,91.37
2019-02-12T02:41:46.661Z,91.47
2019-02-12T02:42:46.679Z,91.58
2019-02-12T02:43:46.644Z,91.83
2019-02-12T02:44:46.633Z,92.14
2019-02-12T02:45:46.621Z,92.14
2019-02-12T02:46:46.612Z,92.66
2019-02-12T02:47:46.635Z,92.66
2019-02-12T02:48:46.591Z,92.56
2019-02-12T02:49:46.586Z,92.66
2019-02-12T02:50:46.572Z,92.25
2019-02-12T02:51:53.695Z,92.25
2019-02-12T02:52:47.571Z,92.77
2019-02-12T02:53:46.535Z,92.66
2019-02-12T02:54:46.536Z,92.87
2019-02-12T02:55:46.521Z,93.50
2019-02-12T02:56:46.507Z,93.50
2019-02-12T02:57:46.527Z,93.60
2019-02-12T02:58:46.493Z,93.29
2019-02-12T02:59:46.474Z,93.29
2019-02-12T03:00:46.467Z,93.18
2019-02-12T03:01:46.459Z,93.71
2019-02-12T03:02:46.469Z,93.29
2019-02-12T03:03:46.448Z,93.50
2019-02-12T03:04:46.422Z,92.91
2019-02-12T03:05:46.416Z,93.33
2019-02-12T03:06:46.397Z,93.02
2019-02-12T03:07:46.415Z,93.12
2019-02-12T03:08:46.387Z,93.85
2019-02-12T03:09:46.372Z,93.65
2019-02-12T03:10:46.359Z,93.65
2019-02-12T03:11:46.354Z,93.33
2019-02-12T03:12:46.379Z,93.44
2019-02-12T03:13:46.324Z,93.79
2019-02-12T03:14:46.314Z,93.59
2019-02-12T03:15:46.304Z,93.90
2019-02-12T03:16:46.301Z,94.00
2019-02-12T03:17:46.332Z,94.46
2019-02-12T03:18:46.283Z,94.35
2019-02-12T03:19:46.261Z,94.42
2019-02-12T03:20:46.257Z,94.84
2019-02-12T03:21:46.238Z,94.84
2019-02-12T03:22:46.222Z,94.67
2019-02-12T03:23:46.255Z,94.25
2019-02-12T03:24:46.217Z,93.94
2019-02-12T03:25:46.198Z,94.57
2019-02-12T03:26:46.200Z,94.88
2019-02-12T03:27:46.180Z,94.88
2019-02-12T03:28:46.198Z,94.78
2019-02-12T03:29:46.151Z,94.25
2019-02-12T03:30:46.147Z,94.35
2019-02-12T03:31:46.140Z,94.88
2019-02-12T03:32:46.122Z,94.71
2019-02-12T03:33:46.157Z,94.71
2019-02-12T03:34:46.103Z,94.71
2019-02-12T03:35:46.091Z,94.82
2019-02-12T03:36:46.087Z,94.92
2019-02-12T03:37:46.113Z,95.17
2019-02-12T03:38:46.100Z,96.07
2019-02-12T03:39:46.046Z,95.90
2019-02-12T03:40:46.039Z,95.44
2019-02-12T03:41:46.031Z,95.65
2019-02-12T03:42:46.033Z,95.61
2019-02-12T03:43:46.045Z,94.78
2019-02-12T03:44:46.004Z,94.88
2019-02-12T03:45:45.981Z,94.35
2019-02-12T03:46:45.976Z,94.57
2019-02-12T03:47:45.964Z,94.52
2019-02-12T03:48:45.983Z,94.10
2019-02-12T03:49:45.941Z,94.15
2019-02-12T03:50:45.931Z,93.59
2019-02-12T03:51:45.930Z,93.69
2019-02-12T03:52:45.915Z,93.27
2019-02-12T03:53:45.930Z,93.27
2019-02-12T03:54:45.892Z,93.16
2019-02-12T03:55:45.900Z,93.59
2019-02-12T03:56:45.872Z,93.48
2019-02-12T03:57:45.859Z,93.37
2019-02-12T03:58:45.876Z,93.16
2019-02-12T03:59:45.838Z,93.37
2019-02-12T04:00:45.832Z,93.75
2019-02-12T04:01:45.827Z,93.37
2019-02-12T04:02:45.802Z,93.33
2019-02-12T04:03:45.818Z,93.48
2019-02-12T04:04:45.788Z,92.65
2019-02-12T04:05:45.788Z,92.71
2019-02-12T04:06:45.784Z,92.71
2019-02-12T04:07:45.752Z,92.44
2019-02-12T04:08:45.767Z,91.97
2019-02-12T04:09:45.732Z,91.97
2019-02-12T04:10:45.719Z,92.22
2019-02-12T04:11:46.219Z,92.65
2019-02-12T04:12:45.694Z,92.75
2019-02-12T04:13:45.710Z,92.37
2019-02-12T04:14:45.682Z,92.85
2019-02-12T04:15:45.676Z,93.41
2019-02-12T04:16:45.655Z,93.52
2019-02-12T04:17:45.642Z,93.31
2019-02-12T04:18:45.682Z,94.04
2019-02-12T04:19:45.627Z,93.88
2019-02-12T04:20:45.624Z,94.29
2019-02-12T04:21:45.650Z,94.50
2019-02-12T04:22:45.602Z,94.82
2019-02-12T04:23:45.630Z,94.61
2019-02-12T04:24:45.567Z,94.86
2019-02-12T04:25:45.555Z,95.07
2019-02-12T04:26:45.556Z,95.80
2019-02-12T04:27:45.562Z,95.49
2019-02-12T04:28:45.527Z,95.80
2019-02-12T04:29:45.548Z,95.80
2019-02-12T04:30:45.508Z,96.11
2019-02-12T04:31:45.490Z,96.11
2019-02-12T04:32:45.484Z,96.01
2019-02-12T04:33:45.485Z,96.11
2019-02-12T04:34:45.497Z,96.11
2019-02-12T04:35:45.453Z,96.11
2019-02-12T04:36:45.447Z,96.01
2019-02-12T04:37:45.442Z,96.01
2019-02-12T04:38:45.425Z,96.11
2019-02-12T04:39:45.435Z,95.90
2019-02-12T04:40:45.412Z,96.22
2019-02-12T04:41:45.390Z,96.33
2019-02-12T04:42:45.381Z,95.90
2019-02-12T04:43:45.373Z,96.43
2019-02-12T04:44:45.383Z,96.95
2019-02-12T04:45:45.350Z,96.43
2019-02-12T04:46:45.337Z,96.11
2019-02-12T04:47:45.324Z,96.33
2019-02-12T04:48:45.313Z,96.11
2019-02-12T04:49:45.324Z,96.26
2019-02-12T04:50:45.300Z,96.47
2019-02-12T04:51:45.284Z,96.89
2019-02-12T04:52:45.274Z,97.20
2019-02-12T04:53:45.260Z,96.68
2019-02-12T04:54:45.277Z,97.20
2019-02-12T04:55:45.241Z,96.68
2019-02-12T04:56:45.240Z,97.31
2019-02-12T04:57:45.224Z,97.00
2019-02-12T04:58:45.244Z,97.00
2019-02-12T04:59:45.240Z,97.16
2019-02-12T05:00:45.262Z,97.05
2019-02-12T05:01:45.185Z,97.16
2019-02-12T05:02:45.175Z,96.95
2019-02-12T05:03:45.156Z,97.47
2019-02-12T05:04:45.186Z,96.95
2019-02-12T05:05:45.136Z,97.05
2019-02-12T05:06:45.151Z,97.11
2019-02-12T05:07:45.106Z,96.95
2019-02-12T05:08:45.111Z,96.49
2019-02-12T05:09:45.118Z,96.70
2019-02-12T05:10:45.081Z,96.70
2019-02-12T05:11:45.068Z,96.38
2019-02-12T05:12:45.052Z,96.59
2019-02-12T05:13:45.047Z,96.91
2019-02-12T05:14:45.061Z,96.38
2019-02-12T05:15:45.034Z,96.66
2019-02-12T05:16:45.019Z,96.44
2019-02-12T05:17:45.006Z,95.92
2019-02-12T05:18:44.989Z,96.07
2019-02-12T05:19:45.015Z,96.07
2019-02-12T05:20:44.978Z,95.97
2019-02-12T05:21:44.992Z,95.86
2019-02-12T05:22:44.955Z,96.28
2019-02-12T05:23:44.953Z,95.65
2019-02-12T05:24:44.961Z,95.97
2019-02-12T05:25:44.927Z,96.07
2019-02-12T05:26:44.903Z,96.07
2019-02-12T05:27:44.902Z,96.28
2019-02-12T05:28:44.888Z,96.38
2019-02-12T05:29:44.908Z,96.80
2019-02-12T05:30:44.864Z,96.80
2019-02-12T05:31:44.862Z,96.91
2019-02-12T05:32:44.848Z,96.70
2019-02-12T05:33:44.836Z,96.86
2019-02-12T05:34:44.888Z,96.38
2019-02-12T05:35:44.809Z,96.38
2019-02-12T05:36:44.807Z,96.38
2019-02-12T05:37:44.803Z,96.17
2019-02-12T05:38:44.777Z,96.07
2019-02-12T05:39:44.779Z,95.86
2019-02-12T05:40:44.807Z,96.38
2019-02-12T05:41:44.762Z,95.97
2019-02-12T05:42:44.760Z,96.38
2019-02-12T05:43:44.747Z,96.17
2019-02-12T05:44:44.731Z,96.38
2019-02-12T05:45:44.748Z,96.28
2019-02-12T05:46:44.699Z,96.17
2019-02-12T05:47:44.680Z,95.97
2019-02-12T05:48:44.685Z,96.28
2019-02-12T05:49:44.683Z,96.22
2019-02-12T05:50:44.686Z,96.33
2019-02-12T05:51:44.661Z,96.01
2019-02-12T05:52:53.950Z,96.84
2019-02-12T05:53:45.631Z,97.05
2019-02-12T05:54:44.613Z,96.43
2019-02-12T05:55:44.630Z,96.33
2019-02-12T05:56:44.594Z,96.33
2019-02-12T05:57:44.589Z,96.22
2019-02-12T05:58:44.567Z,96.33
2019-02-12T05:59:47.020Z,96.43
2019-02-12T06:00:44.591Z,95.90
2019-02-12T06:01:44.547Z,97.05
2019-02-12T06:02:44.539Z,96.84
2019-02-12T06:03:44.520Z,96.68
2019-02-12T06:04:44.515Z,96.68
2019-02-12T06:05:44.529Z,97.00
2019-02-12T06:06:44.498Z,96.51
2019-02-12T06:07:44.475Z,97.10
2019-02-12T06:08:44.472Z,96.94
2019-02-12T06:09:44.463Z,97.31
2019-02-12T06:10:44.478Z,97.31
2019-02-12T06:11:44.436Z,97.20
2019-02-12T06:12:44.420Z,97.20
2019-02-12T06:13:44.417Z,97.20
2019-02-12T06:14:44.416Z,97.41
2019-02-12T06:15:44.421Z,97.10
2019-02-12T06:16:44.375Z,97.20
2019-02-12T06:17:44.373Z,97.16
2019-02-12T06:18:44.363Z,97.16
2019-02-12T06:19:44.339Z,97.05
2019-02-12T06:20:44.369Z,97.37
2019-02-12T06:21:44.320Z,97.05
2019-02-12T06:22:44.313Z,97.05
2019-02-12T06:23:44.315Z,96.84
2019-02-12T06:24:44.315Z,97.05
2019-02-12T06:25:44.334Z,96.64
2019-02-12T06:26:44.268Z,96.95
2019-02-12T06:27:44.263Z,96.74
2019-02-12T06:28:44.249Z,96.89
2019-02-12T06:29:44.237Z,97.05
2019-02-12T06:30:44.258Z,96.95
2019-02-12T06:31:44.220Z,96.78
2019-02-12T06:32:44.204Z,97.27
2019-02-12T06:33:44.198Z,96.68
2019-02-12T06:34:44.199Z,96.47
2019-02-12T06:35:44.199Z,96.58
2019-02-12T06:36:44.166Z,96.89
2019-02-12T06:37:44.158Z,96.89
2019-02-12T06:38:44.146Z,96.78
2019-02-12T06:39:44.149Z,97.10
2019-02-12T06:40:44.157Z,97.10
2019-02-12T06:41:44.114Z,96.78
2019-02-12T06:42:44.109Z,96.89
2019-02-12T06:43:44.090Z,96.89
2019-02-12T06:44:44.678Z,96.26
2019-02-12T06:45:44.101Z,97.00
2019-02-12T06:46:44.065Z,97.16
2019-02-12T06:47:44.050Z,96.84
2019-02-12T06:48:44.046Z,97.05
2019-02-12T06:49:44.019Z,96.95
2019-02-12T06:50:44.019Z,96.84
2019-02-12T06:51:44.036Z,97.16
2019-02-12T06:52:43.993Z,96.89
2019-02-12T06:53:43.987Z,97.16
2019-02-12T06:54:43.971Z,97.10
2019-02-12T06:55:43.958Z,97.58
2019-02-12T06:56:43.971Z,97.05
2019-02-12T06:57:43.951Z,97.20
2019-02-12T06:58:43.926Z,96.89
2019-02-12T06:59:43.919Z,97.20
2019-02-12T07:00:43.916Z,97.10
2019-02-12T07:01:43.927Z,96.58
2019-02-12T07:02:43.885Z,96.84
2019-02-12T07:03:43.886Z,96.95
2019-02-12T07:04:43.883Z,96.84
2019-02-12T07:05:43.852Z,97.27
2019-02-12T07:06:43.879Z,96.84
2019-02-12T07:07:43.827Z,96.84
2019-02-12T07:08:43.820Z,97.00
2019-02-12T07:09:43.820Z,96.37
2019-02-12T07:10:43.805Z,96.78
2019-02-12T07:11:44.590Z,96.47
2019-02-12T07:12:43.777Z,96.74
2019-02-12T07:13:43.776Z,96.95
2019-02-12T07:14:43.762Z,95.80
2019-02-12T07:15:43.743Z,96.26
2019-02-12T07:16:43.773Z,96.43
2019-02-12T07:17:43.718Z,96.95
2019-02-12T07:18:43.713Z,97.10
2019-02-12T07:19:43.712Z,96.11
2019-02-12T07:20:43.694Z,96.33
2019-02-12T07:21:43.706Z,95.49
2019-02-12T07:22:43.670Z,96.11
2019-02-12T07:23:43.659Z,96.43
2019-02-12T07:24:43.653Z,96.28
2019-02-12T07:25:43.637Z,95.97
2019-02-12T07:26:43.665Z,95.86
2019-02-12T07:27:43.614Z,95.76
2019-02-12T07:28:43.607Z,95.13
2019-02-12T07:29:43.597Z,94.92
2019-02-12T07:30:43.584Z,95.13
2019-02-12T07:31:43.613Z,94.78
2019-02-12T07:32:43.563Z,94.78
2019-02-12T07:33:43.552Z,95.09
2019-02-12T07:34:43.551Z,94.78
2019-02-12T07:35:43.539Z,94.78
2019-02-12T07:36:43.554Z,94.67
2019-02-12T07:37:43.508Z,94.46
2019-02-12T07:38:43.504Z,94.57
2019-02-12T07:39:43.490Z,94.15
2019-02-12T07:40:43.481Z,94.31
2019-02-12T07:41:43.499Z,93.79
2019-02-12T07:42:43.462Z,93.79
2019-02-12T07:43:43.448Z,93.69
2019-02-12T07:44:43.441Z,93.37
2019-02-12T07:45:43.426Z,93.59
2019-02-12T07:46:43.450Z,93.44
2019-02-12T07:47:43.414Z,92.71
2019-02-12T07:48:45.245Z,92.71
2019-02-12T07:49:43.384Z,92.03
2019-02-12T07:50:43.377Z,91.72
2019-02-12T07:51:43.393Z,91.41
2019-02-12T07:52:43.347Z,91.72
2019-02-12T07:53:43.354Z,90.95
2019-02-12T07:54:43.341Z,91.27
2019-02-12T07:55:43.340Z,89.91
2019-02-12T07:56:43.339Z,90.08
2019-02-12T07:57:43.295Z,89.00
2019-02-12T07:58:43.293Z,87.77
2019-02-12T07:59:43.285Z,85.86
2019-02-12T08:00:43.263Z,84.27
2019-02-12T08:01:43.298Z,84.37
2019-02-12T08:02:43.243Z,84.16
2019-02-12T08:03:43.235Z,83.39
2019-02-12T08:04:43.229Z,83.74
2019-02-12T08:05:43.226Z,84.05
2019-02-12T08:06:43.235Z,83.91
2019-02-12T08:07:43.192Z,83.18
2019-02-12T08:08:43.196Z,83.18
2019-02-12T08:09:43.179Z,82.87
2019-02-12T08:10:43.160Z,81.14
2019-02-12T08:11:43.185Z,80.16
2019-02-12T08:12:43.249Z,79.41
2019-02-12T08:13:43.130Z,78.37
2019-02-12T08:14:43.121Z,78.78
2019-02-12T08:15:43.107Z,78.09
2019-02-12T08:16:43.133Z,76.53
2019-02-12T08:17:43.093Z,76.09
2019-02-12T08:18:43.083Z,76.12
2019-02-12T08:19:43.067Z,77.15
2019-02-12T08:20:43.055Z,76.71
2019-02-12T08:21:43.040Z,76.50
2019-02-12T08:22:43.076Z,74.88
2019-02-12T08:23:43.044Z,75.15
2019-02-12T08:24:43.009Z,76.29
2019-02-12T08:25:43.007Z,74.95
2019-02-12T08:26:42.997Z,76.36
2019-02-12T08:27:43.021Z,75.84
2019-02-12T08:28:42.966Z,74.53
2019-02-12T08:29:42.964Z,74.26
2019-02-12T08:30:42.949Z,74.71
2019-02-12T08:31:42.932Z,76.71
2019-02-12T08:32:42.945Z,80.47
2019-02-12T08:33:42.917Z,80.27
2019-02-12T08:34:42.908Z,81.35
2019-02-12T08:35:42.895Z,81.51
2019-02-12T08:36:42.888Z,81.41
2019-02-12T08:37:42.895Z,81.62
2019-02-12T08:38:42.853Z,80.79
2019-02-12T08:39:42.846Z,81.10
2019-02-12T08:40:42.836Z,82.01
2019-02-12T08:41:42.826Z,84.19
2019-02-12T08:42:42.848Z,84.29
2019-02-12T08:43:42.850Z,84.60
2019-02-12T08:44:42.795Z,83.70
2019-02-12T08:45:42.808Z,85.47
2019-02-12T08:46:42.784Z,85.16
2019-02-12T08:47:42.814Z,84.78
2019-02-12T08:48:42.754Z,84.68
2019-02-12T08:49:42.750Z,84.89
2019-02-12T08:50:42.727Z,85.10
2019-02-12T08:51:42.714Z,85.93
2019-02-12T08:52:42.739Z,85.82
2019-02-12T08:53:50.286Z,86.13
2019-02-12T08:54:43.690Z,85.82
2019-02-12T08:55:54.677Z,85.82
2019-02-12T08:56:42.650Z,85.47
2019-02-12T08:57:42.664Z,85.61
2019-02-12T08:58:42.630Z,86.09
2019-02-12T08:59:42.616Z,85.68
2019-02-12T09:00:42.607Z,85.99
2019-02-12T09:01:42.639Z,85.47
2019-02-12T09:02:42.607Z,85.99
2019-02-12T09:03:42.578Z,85.74
2019-02-12T09:04:42.603Z,85.53
2019-02-12T09:05:42.558Z,84.70
2019-02-12T09:06:42.547Z,84.91
2019-02-12T09:07:42.559Z,85.02
2019-02-12T09:08:42.523Z,85.53
2019-02-12T09:09:42.506Z,84.43
2019-02-12T09:10:42.495Z,84.95
2019-02-12T09:11:42.485Z,85.05
2019-02-12T09:12:42.510Z,84.64
2019-02-12T09:13:42.471Z,85.47
2019-02-12T09:14:42.461Z,85.53
2019-02-12T09:15:42.446Z,85.43
2019-02-12T09:16:42.443Z,86.05
2019-02-12T09:17:42.447Z,84.60
2019-02-12T09:18:42.412Z,85.02
2019-02-12T09:19:42.406Z,85.43
2019-02-12T09:20:42.413Z,84.25
2019-02-12T09:21:42.384Z,83.46
2019-02-12T09:22:42.407Z,85.39
2019-02-12T09:23:42.362Z,83.11
2019-02-12T09:24:42.350Z,83.63
2019-02-12T09:25:42.344Z,84.86
2019-02-12T09:26:42.330Z,82.89
2019-02-12T09:27:42.316Z,83.10
2019-02-12T09:28:42.337Z,83.00
2019-02-12T09:29:42.294Z,81.96
2019-02-12T09:30:42.290Z,83.16
2019-02-12T09:31:42.273Z,81.20
2019-02-12T09:32:42.267Z,80.57
2019-02-12T09:33:42.279Z,79.91
2019-02-12T09:34:42.240Z,79.47
2019-02-12T09:35:42.236Z,78.05
2019-02-12T09:36:42.221Z,77.64
2019-02-12T09:37:42.259Z,78.01
2019-02-12T09:38:42.229Z,76.81
2019-02-12T09:39:42.188Z,77.98
2019-02-12T09:40:42.175Z,77.91
2019-02-12T09:41:42.167Z,76.12
2019-02-12T09:42:42.155Z,75.70
2019-02-12T09:43:42.164Z,75.87
2019-02-12T09:44:42.135Z,74.84
2019-02-12T09:45:42.120Z,75.49
2019-02-12T09:46:42.113Z,75.05
2019-02-12T09:47:42.105Z,73.98
2019-02-12T09:48:42.134Z,73.19
2019-02-12T09:49:42.080Z,74.81
2019-02-12T09:50:42.069Z,75.01
2019-02-12T09:51:42.056Z,73.02
2019-02-12T09:52:42.054Z,74.15
2019-02-12T09:53:42.058Z,73.68
2019-02-12T09:54:42.027Z,75.09
2019-02-12T09:55:42.011Z,74.91
2019-02-12T09:56:42.001Z,74.63
2019-02-12T09:57:41.992Z,76.26
2019-02-12T09:58:42.005Z,79.08
2019-02-12T09:59:41.967Z,77.70
2019-02-12T10:00:42.017Z,79.81
2019-02-12T10:01:41.947Z,81.33
2019-02-12T10:02:41.937Z,80.60
2019-02-12T10:03:41.949Z,81.09
2019-02-12T10:04:41.922Z,80.53
2019-02-12T10:05:41.904Z,78.77
2019-02-12T10:06:41.901Z,78.33
2019-02-12T10:07:41.992Z,80.32
2019-02-12T10:08:41.912Z,80.29
2019-02-12T10:09:41.860Z,78.08
2019-02-12T10:10:41.849Z,76.90
2019-02-12T10:11:41.845Z,76.81
2019-02-12T10:12:41.835Z,76.53
2019-02-12T10:13:41.845Z,77.87
2019-02-12T10:14:41.804Z,77.36
2019-02-12T10:15:41.793Z,77.67
2019-02-12T10:16:41.780Z,78.35
2019-02-12T10:17:41.773Z,78.39
2019-02-12T10:18:41.788Z,76.32
2019-02-12T10:19:41.756Z,77.60
2019-02-12T10:20:41.744Z,78.59
2019-02-12T10:21:41.728Z,78.77
2019-02-12T10:22:41.721Z,76.60
2019-02-12T10:23:41.738Z,76.53
2019-02-12T10:24:41.702Z,76.87
2019-02-12T10:25:41.705Z,78.67
2019-02-12T10:26:41.676Z,78.05
2019-02-12T10:27:41.665Z,77.12
2019-02-12T10:28:48.582Z,77.19
2019-02-12T10:29:42.645Z,78.63
2019-02-12T10:30:41.650Z,79.11
2019-02-12T10:31:41.634Z,77.04
2019-02-12T10:32:41.716Z,79.18
2019-02-12T10:33:41.732Z,75.81
2019-02-12T10:34:41.730Z,78.08
2019-02-12T10:35:41.591Z,79.49
2019-02-12T10:36:41.641Z,75.87
2019-02-12T10:37:41.563Z,77.04
2019-02-12T10:38:42.135Z,76.01
2019-02-12T10:39:41.558Z,76.50
2019-02-12T10:40:41.538Z,78.05
2019-02-12T10:41:41.532Z,80.15
2019-02-12T10:42:41.516Z,80.84
2019-02-12T10:43:41.530Z,79.60
2019-02-12T10:44:41.494Z,79.29
2019-02-12T10:45:41.479Z,80.29
2019-02-12T10:46:41.473Z,78.94
2019-02-12T10:47:41.462Z,78.80
2019-02-12T10:48:41.474Z,77.50
2019-02-12T10:49:41.435Z,78.46
2019-02-12T10:50:41.425Z,79.80
2019-02-12T10:51:41.417Z,80.90
2019-02-12T10:52:41.408Z,79.46
2019-02-12T10:53:41.417Z,78.63
2019-02-12T10:54:41.385Z,78.32
2019-02-12T10:55:41.383Z,78.42
2019-02-12T10:56:41.364Z,79.05
2019-02-12T10:57:41.349Z,80.39
2019-02-12T10:58:41.362Z,79.22
2019-02-12T10:59:41.329Z,78.84
2019-02-12T11:00:41.319Z,79.73
2019-02-12T11:01:41.310Z,77.60
2019-02-12T11:02:41.298Z,77.91
2019-02-12T11:03:41.314Z,79.15
2019-02-12T11:04:41.274Z,77.91
2019-02-12T11:05:41.265Z,77.43
2019-02-12T11:06:41.259Z,78.56
2019-02-12T11:07:41.243Z,79.80
2019-02-12T11:08:41.277Z,79.56
2019-02-12T11:09:41.227Z,79.56
2019-02-12T11:10:41.214Z,79.60
2019-02-12T11:11:41.201Z,80.08
2019-02-12T11:12:41.185Z,78.98
2019-02-12T11:13:41.173Z,78.42
2019-02-12T11:14:41.205Z,79.80
2019-02-12T11:15:41.188Z,79.70
2019-02-12T11:16:41.147Z,80.22
2019-02-12T11:17:41.129Z,81.15
2019-02-12T11:18:41.121Z,81.25
2019-02-12T11:19:41.146Z,78.29
2019-02-12T11:20:41.106Z,79.05
2019-02-12T11:21:41.092Z,81.64
2019-02-12T11:22:41.091Z,82.74
2019-02-12T11:23:41.073Z,80.77
2019-02-12T11:24:41.099Z,80.88
2019-02-12T11:25:41.056Z,81.33
2019-02-12T11:26:41.043Z,79.98
2019-02-12T11:27:41.033Z,79.67
2019-02-12T11:28:41.023Z,80.54
2019-02-12T11:29:41.029Z,80.22
2019-02-12T11:30:41.006Z,81.57
2019-02-12T11:31:40.987Z,79.88
2019-02-12T11:32:40.977Z,81.02
2019-02-12T11:33:40.969Z,80.50
2019-02-12T11:34:40.982Z,82.74
2019-02-12T11:35:40.954Z,82.60
2019-02-12T11:36:40.936Z,80.01
2019-02-12T11:37:40.923Z,79.29
2019-02-12T11:38:40.909Z,80.49
2019-02-12T11:39:40.924Z,80.49
2019-02-12T11:40:40.892Z,81.07
2019-02-12T11:41:40.884Z,81.11
2019-02-12T11:42:40.871Z,80.08
2019-02-12T11:43:40.859Z,80.49
2019-02-12T11:44:40.879Z,79.15
2019-02-12T11:45:40.839Z,81.94
2019-02-12T11:46:40.830Z,80.70
2019-02-12T11:47:40.818Z,81.77
2019-02-12T11:48:40.810Z,80.08
2019-02-12T11:49:40.828Z,79.29
2019-02-12T11:50:40.784Z,81.11
2019-02-12T11:51:40.772Z,79.39
2019-02-12T11:52:40.766Z,80.08
2019-02-12T11:53:40.753Z,81.73
2019-02-12T11:54:43.817Z,80.87
2019-02-12T11:55:41.170Z,80.66
2019-02-12T11:56:40.723Z,81.38
2019-02-12T11:57:40.711Z,80.35
2019-02-12T11:58:40.698Z,80.35
2019-02-12T11:59:40.718Z,79.08
2019-02-12T12:00:40.679Z,78.39
2019-02-12T12:01:40.673Z,79.08
2019-02-12T12:02:42.025Z,79.32
2019-02-12T12:03:40.654Z,79.01
2019-02-12T12:04:40.660Z,79.69
2019-02-12T12:05:40.626Z,80.42
2019-02-12T12:06:40.621Z,80.73
2019-02-12T12:07:40.616Z,78.97
2019-02-12T12:08:40.599Z,79.73
2019-02-12T12:09:40.606Z,80.35
2019-02-12T12:10:40.578Z,79.11
2019-02-12T12:11:40.563Z,79.38
2019-02-12T12:12:40.552Z,80.21
2019-02-12T12:13:40.546Z,80.38
2019-02-12T12:14:40.566Z,77.32
2019-02-12T12:15:40.518Z,77.80
2019-02-12T12:16:40.510Z,79.66
2019-02-12T12:17:40.496Z,77.97
2019-02-12T12:18:40.491Z,77.39
2019-02-12T12:19:40.480Z,78.59
2019-02-12T12:20:40.496Z,79.14
2019-02-12T12:21:40.476Z,77.45
2019-02-12T12:22:40.448Z,77.93
2019-02-12T12:23:40.436Z,76.66
2019-02-12T12:24:40.423Z,75.12
2019-02-12T12:25:40.445Z,74.63
2019-02-12T12:26:40.401Z,73.95
2019-02-12T12:27:40.390Z,75.43
2019-02-12T12:28:40.377Z,76.46
2019-02-12T12:29:40.371Z,77.83
2019-02-12T12:30:40.383Z,78.97
2019-02-12T12:31:40.341Z,76.84
2019-02-12T12:32:40.339Z,79.52
2019-02-12T12:33:40.333Z,80.14
2019-02-12T12:34:40.310Z,79.62
2019-02-12T12:35:40.335Z,80.44
2019-02-12T12:36:40.297Z,79.62
2019-02-12T12:37:40.282Z,79.00
2019-02-12T12:38:40.272Z,79.83
2019-02-12T12:39:40.258Z,77.76
2019-02-12T12:40:40.285Z,79.72
2019-02-12T12:41:40.233Z,80.41
2019-02-12T12:42:40.226Z,77.83
2019-02-12T12:43:40.214Z,79.14
2019-02-12T12:44:40.207Z,77.55
2019-02-12T12:45:40.217Z,76.83
2019-02-12T12:46:40.180Z,78.28
2019-02-12T12:47:40.186Z,76.97
2019-02-12T12:48:40.194Z,78.00
2019-02-12T12:49:40.156Z,76.76
2019-02-12T12:50:40.160Z,77.69
2019-02-12T12:51:40.128Z,77.90
2019-02-12T12:52:40.114Z,77.52